createdAt,value
2018-05-05T00:00:31.941Z,13.52
2018-05-05T00:02:59.328Z,13.56
2018-05-05T00:05:26.715Z,13.50
2018-05-05T00:07:54.107Z,13.45
2018-05-05T00:10:21.496Z,13.46
2018-05-05T00:12:48.887Z,13.38
2018-05-05T00:15:16.281Z,13.32
2018-05-05T00:17:43.660Z,13.37
2018-05-05T00:20:11.056Z,13.28
2018-05-05T00:22:38.447Z,13.26
2018-05-05T00:25:05.832Z,13.32
2018-05-05T00:27:33.217Z,13.25
2018-05-05T00:30:00.619Z,13.24
2018-05-05T00:32:27.991Z,13.24
2018-05-05T00:34:55.386Z,13.21
2018-05-05T00:37:22.785Z,13.25
2018-05-05T00:39:50.159Z,13.21
2018-05-05T00:42:17.568Z,13.18
2018-05-05T00:44:44.955Z,13.14
2018-05-05T00:47:12.341Z,13.16
2018-05-05T00:49:39.721Z,13.15
2018-05-05T00:52:07.143Z,13.18
2018-05-05T00:54:46.205Z,13.19
2018-05-05T00:57:13.609Z,13.19
2018-05-05T00:59:40.992Z,13.19
2018-05-05T01:02:08.388Z,13.22
2018-05-05T01:04:35.781Z,13.17
2018-05-05T01:07:03.168Z,13.21
2018-05-05T01:09:30.561Z,13.15
2018-05-05T01:11:57.960Z,13.11
2018-05-05T01:14:25.367Z,13.16
2018-05-05T01:16:52.738Z,13.14
2018-05-05T01:19:20.128Z,13.10
2018-05-05T01:21:47.527Z,13.13
2018-05-05T01:24:14.917Z,13.19
2018-05-05T01:26:42.315Z,13.07
2018-05-05T01:29:09.696Z,13.08
2018-05-05T01:31:37.098Z,13.10
2018-05-05T01:34:04.482Z,13.02
2018-05-05T01:36:31.878Z,12.98
2018-05-05T01:39:00.007Z,12.84
2018-05-05T01:41:27.423Z,12.78
2018-05-05T01:43:54.800Z,12.71
2018-05-05T01:46:22.180Z,12.63
2018-05-05T01:48:49.613Z,12.59
2018-05-05T01:51:16.986Z,12.55
2018-05-05T01:53:44.387Z,12.54
2018-05-05T01:56:11.779Z,12.46
2018-05-05T01:58:39.184Z,12.44
2018-05-05T02:01:06.584Z,12.42
2018-05-05T02:03:33.979Z,12.24
2018-05-05T02:06:03.227Z,12.27
2018-05-05T02:08:30.617Z,12.04
2018-05-05T02:10:58.008Z,11.98
2018-05-05T02:13:25.396Z,11.88
2018-05-05T02:15:52.778Z,11.86
2018-05-05T02:18:20.177Z,11.78
2018-05-05T02:20:47.551Z,11.77
2018-05-05T02:23:14.950Z,11.73
2018-05-05T02:25:42.375Z,11.62
2018-05-05T02:28:09.756Z,11.59
2018-05-05T02:30:37.153Z,11.65
2018-05-05T02:33:04.546Z,11.42
2018-05-05T02:35:31.933Z,11.39
2018-05-05T02:37:59.333Z,11.37
2018-05-05T02:40:26.718Z,11.26
2018-05-05T02:42:54.120Z,11.23
2018-05-05T02:45:21.504Z,11.31
2018-05-05T02:47:49.645Z,11.27
2018-05-05T02:50:17.039Z,11.24
2018-05-05T02:52:44.424Z,11.23
2018-05-05T02:55:11.822Z,11.18
2018-05-05T02:57:39.199Z,11.22
2018-05-05T03:00:06.602Z,11.21
2018-05-05T03:02:33.996Z,11.19
2018-05-05T03:05:01.387Z,11.25
2018-05-05T03:07:28.779Z,11.12
2018-05-05T03:09:56.160Z,11.04
2018-05-05T03:12:23.548Z,10.98
2018-05-05T03:14:50.946Z,10.83
2018-05-05T03:17:18.328Z,10.76
2018-05-05T03:19:45.731Z,10.74
2018-05-05T03:22:13.116Z,10.74
2018-05-05T03:24:40.521Z,10.76
2018-05-05T03:27:07.927Z,10.72
2018-05-05T03:29:35.318Z,10.66
2018-05-05T03:32:03.016Z,10.53
2018-05-05T03:34:30.418Z,10.50
2018-05-05T03:36:57.795Z,10.41
2018-05-05T03:39:25.211Z,10.29
2018-05-05T03:41:52.591Z,10.27
2018-05-05T03:44:19.983Z,10.28
2018-05-05T03:46:47.372Z,10.35
2018-05-05T03:49:14.760Z,10.34
2018-05-05T03:51:43.812Z,10.33
2018-05-05T03:54:11.216Z,10.26
2018-05-05T03:56:38.599Z,10.23
2018-05-05T03:59:17.627Z,10.28
2018-05-05T04:01:56.901Z,10.23
2018-05-05T04:04:24.288Z,10.18
2018-05-05T04:06:52.040Z,10.22
2018-05-05T04:09:19.445Z,10.37
2018-05-05T04:11:46.839Z,10.36
2018-05-05T04:14:14.225Z,10.35
2018-05-05T04:16:41.615Z,10.43
2018-05-05T04:19:08.992Z,10.46
2018-05-05T04:21:36.711Z,10.45
2018-05-05T04:24:04.092Z,10.49
2018-05-05T04:26:31.483Z,10.52
2018-05-05T04:28:58.863Z,10.60
2018-05-05T04:31:26.272Z,10.66
2018-05-05T04:33:53.664Z,10.68
2018-05-05T04:36:21.053Z,10.80
2018-05-05T04:38:48.433Z,10.92
2018-05-05T04:41:15.905Z,10.88
2018-05-05T04:43:43.293Z,10.86
2018-05-05T04:46:10.683Z,10.92
2018-05-05T04:48:38.079Z,10.90
2018-05-05T04:51:05.470Z,11.03
2018-05-05T04:53:32.852Z,11.03
2018-05-05T04:56:00.274Z,11.16
2018-05-05T04:58:27.655Z,11.19
2018-05-05T05:00:55.058Z,11.27
2018-05-05T05:03:22.447Z,11.34
2018-05-05T05:05:49.835Z,11.41
2018-05-05T05:08:17.224Z,11.52
2018-05-05T05:10:44.614Z,11.59
2018-05-05T05:13:12.000Z,11.63
2018-05-05T05:15:39.399Z,11.76
2018-05-05T05:18:06.792Z,11.96
2018-05-05T05:20:34.184Z,11.93
2018-05-05T05:23:01.579Z,11.99
2018-05-05T05:25:28.967Z,12.01
2018-05-05T05:27:56.364Z,12.12
2018-05-05T05:30:24.696Z,12.17
2018-05-05T05:32:52.103Z,12.22
2018-05-05T05:35:19.482Z,12.43
2018-05-05T05:37:46.872Z,13.28
2018-05-05T05:40:14.262Z,13.53
2018-05-05T05:42:41.666Z,14.02
2018-05-05T05:45:09.047Z,14.11
2018-05-05T05:47:36.590Z,14.14
2018-05-05T05:50:03.957Z,14.25
2018-05-05T05:52:31.394Z,14.32
2018-05-05T05:54:58.772Z,14.59
2018-05-05T05:57:26.172Z,14.70
2018-05-05T05:59:54.702Z,14.72
2018-05-05T06:02:22.099Z,14.94
2018-05-05T06:04:49.518Z,14.90
2018-05-05T06:07:16.944Z,14.90
2018-05-05T06:09:44.327Z,15.11
2018-05-05T06:12:11.719Z,15.18
2018-05-05T06:14:39.099Z,15.08
2018-05-05T06:17:06.740Z,15.31
2018-05-05T06:19:34.138Z,15.43
2018-05-05T06:22:01.975Z,15.45
2018-05-05T06:24:29.426Z,14.63
2018-05-05T06:26:56.835Z,14.02
2018-05-05T06:29:24.881Z,14.10
2018-05-05T06:31:52.271Z,13.99
2018-05-05T06:34:19.668Z,13.85
2018-05-05T06:36:47.736Z,13.94
2018-05-05T06:39:15.182Z,13.91
2018-05-05T06:41:42.587Z,13.65
2018-05-05T06:44:10.004Z,13.50
2018-05-05T06:46:37.403Z,13.59
2018-05-05T06:49:04.795Z,13.86
2018-05-05T06:51:32.176Z,13.90
2018-05-05T06:53:59.583Z,14.08
2018-05-05T06:56:27.664Z,13.95
2018-05-05T06:58:55.060Z,13.93
2018-05-05T07:01:22.576Z,14.08
2018-05-05T07:03:49.989Z,14.22
2018-05-05T07:06:17.492Z,14.59
2018-05-05T07:08:45.086Z,14.42
2018-05-05T07:11:12.504Z,14.57
2018-05-05T07:13:39.849Z,14.40
2018-05-05T07:16:07.228Z,14.45
2018-05-05T07:18:34.656Z,14.44
2018-05-05T07:21:02.904Z,14.63
2018-05-05T07:23:30.291Z,14.71
2018-05-05T07:25:57.713Z,14.97
2018-05-05T07:28:25.583Z,15.12
2018-05-05T07:30:52.976Z,15.31
2018-05-05T07:33:20.372Z,15.51
2018-05-05T07:35:47.781Z,15.34
2018-05-05T07:38:15.168Z,15.08
2018-05-05T07:40:42.575Z,15.05
2018-05-05T07:43:09.968Z,15.20
2018-05-05T07:45:37.362Z,15.37
2018-05-05T07:48:05.552Z,15.38
2018-05-05T07:50:32.948Z,15.28
2018-05-05T07:53:00.332Z,15.54
2018-05-05T07:55:27.731Z,15.48
2018-05-05T07:57:55.356Z,15.33
2018-05-05T08:00:22.747Z,15.39
2018-05-05T08:02:50.144Z,15.56
2018-05-05T08:05:17.677Z,15.45
2018-05-05T08:07:45.066Z,15.55
2018-05-05T08:10:12.467Z,15.81
2018-05-05T08:12:40.096Z,15.93
2018-05-05T08:15:07.820Z,15.81
2018-05-05T08:17:35.202Z,15.58
2018-05-05T08:20:02.593Z,15.71
2018-05-05T08:22:30.961Z,15.87
2018-05-05T08:24:58.354Z,15.99
2018-05-05T08:27:25.736Z,15.84
2018-05-05T08:29:53.139Z,16.06
2018-05-05T08:32:20.631Z,16.32
2018-05-05T08:34:48.023Z,16.37
2018-05-05T08:37:15.435Z,16.19
2018-05-05T08:39:42.989Z,16.37
2018-05-05T08:42:10.836Z,16.72
2018-05-05T08:44:38.215Z,16.68
2018-05-05T08:47:05.915Z,16.85
2018-05-05T08:49:33.648Z,17.24
2018-05-05T08:52:01.048Z,16.85
2018-05-05T08:54:28.424Z,16.88
2018-05-05T08:56:55.836Z,16.99
2018-05-05T08:59:23.249Z,17.20
2018-05-05T09:01:50.652Z,17.25
2018-05-05T09:04:18.041Z,17.24
2018-05-05T09:06:45.442Z,17.38
2018-05-05T09:09:12.846Z,17.53
2018-05-05T09:11:40.220Z,17.36
2018-05-05T09:14:07.762Z,17.44
2018-05-05T09:16:35.148Z,17.57
2018-05-05T09:19:03.104Z,17.90
2018-05-05T09:21:30.500Z,17.82
2018-05-05T09:23:57.929Z,18.05
2018-05-05T09:26:25.324Z,17.88
2018-05-05T09:28:52.713Z,18.18
2018-05-05T09:31:20.552Z,18.28
2018-05-05T09:33:48.369Z,18.17
2018-05-05T09:36:15.705Z,18.32
2018-05-05T09:38:43.094Z,18.07
2018-05-05T09:41:10.494Z,18.37
2018-05-05T09:43:37.880Z,18.41
2018-05-05T09:46:05.276Z,18.59
2018-05-05T09:48:32.667Z,18.69
2018-05-05T09:51:00.145Z,18.88
2018-05-05T09:53:27.533Z,18.72
2018-05-05T09:55:54.930Z,18.82
2018-05-05T09:58:22.439Z,18.59
2018-05-05T10:00:49.961Z,19.17
2018-05-05T10:03:20.547Z,19.47
2018-05-05T10:05:47.968Z,19.25
2018-05-05T10:08:15.391Z,19.02
2018-05-05T10:10:42.772Z,19.08
2018-05-05T10:13:10.164Z,18.97
2018-05-05T10:15:37.560Z,19.25
2018-05-05T10:18:05.676Z,19.30
2018-05-05T10:20:33.081Z,19.66
2018-05-05T10:23:00.626Z,19.60
2018-05-05T10:25:28.020Z,19.75
2018-05-05T10:27:56.434Z,19.72
2018-05-05T10:30:23.823Z,19.83
2018-05-05T10:32:51.228Z,19.68
2018-05-05T10:35:18.605Z,19.55
2018-05-05T10:37:45.988Z,19.72
2018-05-05T10:40:13.379Z,19.96
2018-05-05T10:42:40.764Z,19.98
2018-05-05T10:45:08.159Z,20.04
2018-05-05T10:47:35.552Z,20.09
2018-05-05T10:50:02.942Z,20.56
2018-05-05T10:52:30.332Z,20.49
2018-05-05T10:54:57.852Z,20.48
2018-05-05T10:57:25.252Z,20.61
2018-05-05T10:59:52.650Z,20.49
2018-05-05T11:02:20.054Z,20.84
2018-05-05T11:04:47.547Z,20.99
2018-05-05T11:07:14.935Z,20.67
2018-05-05T11:09:42.326Z,20.60
2018-05-05T11:12:09.782Z,20.51
2018-05-05T11:14:38.164Z,20.82
2018-05-05T11:17:05.560Z,20.92
2018-05-05T11:19:32.956Z,21.01
2018-05-05T11:22:00.536Z,20.91
2018-05-05T11:24:27.946Z,21.15
2018-05-05T11:26:55.323Z,21.09
2018-05-05T11:29:22.863Z,21.13
2018-05-05T11:31:51.015Z,21.40
2018-05-05T11:34:18.407Z,21.40
2018-05-05T11:36:46.692Z,21.38
2018-05-05T11:39:14.027Z,21.53
2018-05-05T11:41:41.414Z,21.49
2018-05-05T11:44:09.580Z,21.58
2018-05-05T11:46:36.966Z,21.53
2018-05-05T11:49:04.354Z,21.55
2018-05-05T11:51:31.733Z,21.59
2018-05-05T11:53:59.470Z,21.76
2018-05-05T11:56:26.933Z,22.04
2018-05-05T11:58:54.243Z,21.96
2018-05-05T12:01:21.641Z,21.95
2018-05-05T12:03:49.127Z,22.24
2018-05-05T12:06:18.171Z,21.99
2018-05-05T12:08:45.567Z,22.29
2018-05-05T12:11:12.964Z,22.17
2018-05-05T12:13:41.542Z,22.19
2018-05-05T12:16:09.200Z,22.16
2018-05-05T12:18:37.609Z,22.49
2018-05-05T12:21:05.008Z,22.32
2018-05-05T12:23:33.412Z,22.42
2018-05-05T12:26:00.807Z,22.43
2018-05-05T12:28:28.199Z,22.60
2018-05-05T12:30:55.586Z,22.80
2018-05-05T12:33:23.132Z,23.01
2018-05-05T12:35:50.548Z,22.73
2018-05-05T12:38:17.932Z,22.75
2018-05-05T12:40:45.319Z,22.68
2018-05-05T12:43:12.935Z,22.99
2018-05-05T12:45:40.336Z,23.29
2018-05-05T12:48:08.453Z,23.04
2018-05-05T12:50:36.828Z,22.94
2018-05-05T12:53:04.223Z,23.05
2018-05-05T12:55:31.629Z,22.94
2018-05-05T12:57:59.023Z,23.08
2018-05-05T13:00:26.516Z,23.29
2018-05-05T13:02:55.907Z,23.18
2018-05-05T13:05:23.350Z,23.09
2018-05-05T13:07:50.739Z,23.22
2018-05-05T13:10:18.982Z,23.60
2018-05-05T13:12:46.368Z,23.80
2018-05-05T13:15:13.963Z,23.62
2018-05-05T13:17:42.026Z,23.26
2018-05-05T13:20:09.426Z,23.76
2018-05-05T13:22:36.815Z,23.43
2018-05-05T13:25:04.201Z,23.66
2018-05-05T13:27:32.026Z,23.71
2018-05-05T13:29:59.407Z,23.68
2018-05-05T13:32:26.803Z,23.80
2018-05-05T13:34:54.292Z,23.46
2018-05-05T13:37:22.355Z,23.60
2018-05-05T13:39:49.739Z,23.40
2018-05-05T13:42:17.127Z,23.34
2018-05-05T13:44:45.403Z,23.72
2018-05-05T13:47:13.577Z,23.61
2018-05-05T13:49:45.885Z,23.76
2018-05-05T13:52:13.399Z,23.73
2018-05-05T13:54:40.836Z,23.80
2018-05-05T13:57:08.229Z,23.64
2018-05-05T13:59:35.629Z,23.56
2018-05-05T14:02:03.788Z,23.71
2018-05-05T14:04:31.355Z,23.66
2018-05-05T14:06:58.751Z,23.69
2018-05-05T14:09:26.216Z,23.56
2018-05-05T14:11:53.625Z,23.70
2018-05-05T14:14:21.029Z,24.03
2018-05-05T14:16:48.412Z,23.88
2018-05-05T14:19:16.734Z,23.97
2018-05-05T14:21:44.122Z,24.02
2018-05-05T14:24:11.527Z,24.14
2018-05-05T14:26:38.913Z,24.09
2018-05-05T14:29:06.304Z,23.63
2018-05-05T14:31:33.704Z,23.75
2018-05-05T14:34:01.084Z,23.91
2018-05-05T14:36:28.645Z,23.71
2018-05-05T14:38:56.035Z,23.72
2018-05-05T14:41:23.427Z,23.83
2018-05-05T14:43:50.831Z,24.10
2018-05-05T14:46:18.550Z,24.11
2018-05-05T14:48:45.932Z,24.01
2018-05-05T14:51:13.356Z,24.05
2018-05-05T14:53:40.865Z,24.17
2018-05-05T14:56:08.269Z,23.75
2018-05-05T14:58:35.658Z,23.78
2018-05-05T15:01:03.044Z,23.73
2018-05-05T15:03:30.445Z,24.03
2018-05-05T15:05:57.825Z,23.90
2018-05-05T15:08:25.232Z,23.75
2018-05-05T15:10:52.616Z,23.72
2018-05-05T15:13:20.116Z,23.76
2018-05-05T15:15:48.153Z,23.98
2018-05-05T15:18:15.567Z,23.75
2018-05-05T15:20:43.196Z,23.80
2018-05-05T15:23:11.095Z,23.72
2018-05-05T15:25:38.620Z,23.72
2018-05-05T15:28:06.107Z,24.06
2018-05-05T15:30:33.519Z,24.07
2018-05-05T15:33:01.012Z,24.08
2018-05-05T15:35:28.405Z,24.02
2018-05-05T15:37:56.012Z,24.02
2018-05-05T15:40:23.403Z,23.78
2018-05-05T15:42:51.154Z,23.91
2018-05-05T15:45:19.084Z,24.07
2018-05-05T15:47:47.308Z,24.15
2018-05-05T15:50:15.371Z,24.00
2018-05-05T15:52:43.388Z,23.78
2018-05-05T15:55:13.123Z,23.89
2018-05-05T15:57:40.687Z,23.85
2018-05-05T16:00:08.076Z,23.87
2018-05-05T16:02:35.478Z,23.92
2018-05-05T16:05:02.887Z,23.99
2018-05-05T16:07:30.292Z,23.94
2018-05-05T16:09:57.691Z,23.99
2018-05-05T16:12:25.090Z,24.08
2018-05-05T16:14:52.535Z,23.84
2018-05-05T16:17:20.312Z,23.79
2018-05-05T16:19:47.732Z,23.70
2018-05-05T16:22:15.182Z,23.75
2018-05-05T16:24:42.638Z,23.72
2018-05-05T16:27:10.044Z,23.79
2018-05-05T16:29:37.430Z,23.66
2018-05-05T16:32:04.825Z,23.77
2018-05-05T16:34:32.224Z,23.72
2018-05-05T16:36:59.621Z,23.75
2018-05-05T16:39:27.024Z,23.58
2018-05-05T16:41:54.419Z,23.58
2018-05-05T16:44:21.959Z,23.60
2018-05-05T16:46:49.343Z,23.61
2018-05-05T16:49:16.752Z,23.38
2018-05-05T16:51:45.071Z,23.62
2018-05-05T16:54:12.691Z,23.45
2018-05-05T16:56:40.092Z,23.40
2018-05-05T16:59:07.466Z,23.50
2018-05-05T17:01:35.170Z,23.47
2018-05-05T17:04:03.465Z,23.27
2018-05-05T17:06:30.849Z,23.16
2018-05-05T17:08:58.249Z,23.23
2018-05-05T17:11:25.639Z,23.10
2018-05-05T17:13:53.026Z,22.96
2018-05-05T17:16:20.407Z,22.97
2018-05-05T17:18:47.805Z,22.92
2018-05-05T17:21:15.184Z,22.84
2018-05-05T17:23:42.580Z,22.84
2018-05-05T17:26:09.975Z,22.80
2018-05-05T17:28:37.361Z,22.77
2018-05-05T17:31:04.766Z,22.62
2018-05-05T17:33:32.141Z,22.60
2018-05-05T17:36:00.212Z,22.58
2018-05-05T17:38:27.594Z,22.51
2018-05-05T17:40:55.027Z,22.51
2018-05-05T17:43:22.418Z,22.45
2018-05-05T17:45:49.820Z,22.38
2018-05-05T17:48:17.208Z,22.30
2018-05-05T17:50:44.860Z,22.23
2018-05-05T17:53:12.319Z,22.24
2018-05-05T17:55:39.727Z,22.21
2018-05-05T17:58:07.113Z,22.23
2018-05-05T18:00:34.517Z,22.12
2018-05-05T18:03:02.455Z,22.05
2018-05-05T18:05:30.273Z,21.94
2018-05-05T18:07:57.668Z,21.85
2018-05-05T18:10:25.057Z,21.83
2018-05-05T18:12:53.315Z,21.76
2018-05-05T18:15:20.700Z,21.72
2018-05-05T18:17:48.104Z,21.64
2018-05-05T18:20:15.496Z,21.55
2018-05-05T18:22:42.887Z,21.50
2018-05-05T18:25:10.284Z,21.44
2018-05-05T18:27:38.368Z,21.34
2018-05-05T18:30:05.774Z,21.28
2018-05-05T18:32:33.160Z,21.21
2018-05-05T18:35:01.265Z,21.15
2018-05-05T18:37:28.665Z,21.11
2018-05-05T18:39:56.049Z,21.09
2018-05-05T18:42:24.315Z,21.01
2018-05-05T18:44:51.703Z,20.93
2018-05-05T18:47:19.109Z,20.80
2018-05-05T18:49:46.493Z,20.76
2018-05-05T18:52:13.900Z,20.69
2018-05-05T18:54:41.894Z,20.59
2018-05-05T18:57:09.295Z,20.59
2018-05-05T18:59:36.687Z,20.59
2018-05-05T19:02:04.081Z,20.46
2018-05-05T19:04:31.466Z,20.45
2018-05-05T19:06:59.824Z,20.41
2018-05-05T19:09:27.556Z,20.39
2018-05-05T19:11:55.290Z,20.38
2018-05-05T19:14:22.681Z,20.30
2018-05-05T19:16:50.080Z,20.28
2018-05-05T19:19:17.510Z,20.26
2018-05-05T19:21:45.472Z,20.15
2018-05-05T19:24:12.864Z,20.14
2018-05-05T19:26:40.250Z,20.13
2018-05-05T19:29:07.673Z,20.11
2018-05-05T19:31:35.052Z,20.03
2018-05-05T19:36:36.213Z,20.04
2018-05-05T19:39:05.168Z,19.97
2018-05-05T19:41:32.807Z,19.92
2018-05-05T19:44:00.579Z,19.87
2018-05-05T19:46:27.972Z,19.89
2018-05-05T19:48:55.358Z,19.92
2018-05-05T19:51:22.760Z,19.88
2018-05-05T19:53:50.151Z,19.86
2018-05-05T19:56:17.579Z,19.96
2018-05-05T19:58:45.769Z,19.88
2018-05-05T20:01:13.141Z,19.77
2018-05-05T20:03:41.317Z,19.83
2018-05-05T20:06:09.619Z,19.70
2018-05-05T20:08:37.317Z,19.64
2018-05-05T20:11:04.784Z,19.57
2018-05-05T20:13:32.248Z,19.56
2018-05-05T20:16:01.094Z,19.45
2018-05-05T20:18:28.497Z,19.31
2018-05-05T20:20:56.167Z,19.21
2018-05-05T20:23:23.623Z,19.22
2018-05-05T20:25:52.002Z,19.28
2018-05-05T20:28:19.849Z,19.12
2018-05-05T20:30:48.354Z,19.06
2018-05-05T20:33:16.101Z,18.99
2018-05-05T20:35:43.481Z,18.99
2018-05-05T20:38:11.478Z,18.92
2018-05-05T20:40:38.860Z,18.81
2018-05-05T20:43:06.240Z,18.72
2018-05-05T20:45:33.633Z,18.73
2018-05-05T20:48:01.086Z,18.65
2018-05-05T20:50:28.478Z,18.65
2018-05-05T20:52:55.864Z,18.54
2018-05-05T20:55:23.257Z,18.57
2018-05-05T20:57:50.642Z,18.45
2018-05-05T21:00:18.111Z,18.42
2018-05-05T21:02:45.502Z,18.37
2018-05-05T21:05:12.891Z,18.34
2018-05-05T21:07:41.178Z,18.17
2018-05-05T21:10:08.572Z,18.14
2018-05-05T21:12:35.959Z,18.10
2018-05-05T21:15:03.348Z,18.00
2018-05-05T21:17:31.552Z,17.98
2018-05-05T21:19:59.570Z,17.96
2018-05-05T21:22:27.413Z,17.94
2018-05-05T21:24:54.813Z,17.85
2018-05-05T21:27:22.244Z,17.81
2018-05-05T21:29:49.628Z,17.71
2018-05-05T21:32:17.079Z,17.61
2018-05-05T21:34:44.521Z,17.59
2018-05-05T21:37:11.977Z,17.57
2018-05-05T21:39:39.433Z,17.55
2018-05-05T21:42:09.782Z,17.50
2018-05-05T21:44:37.198Z,17.49
2018-05-05T21:47:04.593Z,17.51
2018-05-05T21:49:32.026Z,17.39
2018-05-05T21:51:59.509Z,17.39
2018-05-05T21:54:26.961Z,17.31
2018-05-05T21:56:54.392Z,17.26
2018-05-05T22:02:38.159Z,17.19
2018-05-05T22:05:05.600Z,17.17
2018-05-05T22:07:32.993Z,17.14
2018-05-05T22:10:00.373Z,17.09
2018-05-05T22:12:27.792Z,17.05
2018-05-05T22:14:55.156Z,16.93
2018-05-05T22:17:22.574Z,16.89
2018-05-05T22:19:49.964Z,16.87
2018-05-05T22:22:18.408Z,16.82
2018-05-05T22:24:45.788Z,16.75
2018-05-05T22:27:13.180Z,16.69
2018-05-05T22:29:40.620Z,16.67
2018-05-05T22:32:08.059Z,16.66
2018-05-05T22:34:36.263Z,16.63
2018-05-05T22:37:04.476Z,16.60
2018-05-05T22:39:32.715Z,16.64
2018-05-05T22:42:01.897Z,16.65
2018-05-05T22:44:29.264Z,16.59
2018-05-05T22:46:56.663Z,16.56
2018-05-05T22:49:24.155Z,16.54
2018-05-05T22:51:51.608Z,16.51
2018-05-05T22:54:19.067Z,16.47
2018-05-05T22:56:46.528Z,16.52
2018-05-05T22:59:13.975Z,16.44
2018-05-05T23:01:42.188Z,16.43
2018-05-05T23:04:09.606Z,16.41
2018-05-05T23:06:36.995Z,16.38
2018-05-05T23:09:05.066Z,16.21
2018-05-05T23:11:32.531Z,16.12
2018-05-05T23:14:00.988Z,16.03
2018-05-05T23:16:28.463Z,16.04
2018-05-05T23:18:55.916Z,16.01
2018-05-05T23:21:23.363Z,15.97
2018-05-05T23:23:50.828Z,15.87
2018-05-05T23:26:18.285Z,15.83
2018-05-05T23:28:46.012Z,15.80
2018-05-05T23:31:13.409Z,15.76
2018-05-05T23:33:40.905Z,15.69
2018-05-05T23:36:08.284Z,15.64
2018-05-05T23:38:36.914Z,15.59
2018-05-05T23:41:05.109Z,15.54
2018-05-05T23:43:34.483Z,15.44
2018-05-05T23:46:02.704Z,15.41
2018-05-05T23:48:30.621Z,15.33
2018-05-05T23:50:58.109Z,15.33
2018-05-05T23:53:25.563Z,15.26
2018-05-05T23:55:53.003Z,15.22
2018-05-05T23:58:20.390Z,15.22
